Time;durP1;ratioP1;P1;durP2;ratioP2;P2;SDS_P1;SDS_P2;PMS_P1;PMS_P2;Temp;Humidity;BMP_temperature;BMP_pressure;BME280_temperature;BME280_humidity;BME280_pressure;Samples;Min_cycle;Max_cycle;Signal;HPM_P1;HPM_P2
2023/05/15 00:01:24;;;;;;;4.13;2.10;;;;;;;18.17;59.90;99501.53;5072219;28;20079;-62
2023/05/15 00:03:53;;;;;;;3.72;2.03;;;;;;;18.18;60.20;99500.53;5072154;28;20044;-62
2023/05/15 00:06:22;;;;;;;3.40;2.22;;;;;;;18.18;60.19;99500.53;5072031;28;20059;-62
2023/05/15 00:08:50;;;;;;;2.78;1.73;;;;;;;18.18;60.00;99502.38;5071901;28;20048;-61
2023/05/15 00:11:19;;;;;;;4.07;2.00;;;;;;;18.17;59.93;99496.13;5071458;28;20064;-62
2023/05/15 00:13:48;;;;;;;3.38;1.90;;;;;;;18.17;60.02;99490.72;5071938;28;20056;-62
2023/05/15 00:16:16;;;;;;;3.95;1.92;;;;;;;18.18;60.27;99491.56;5071779;28;20075;-62
2023/05/15 00:18:45;;;;;;;3.13;1.83;;;;;;;18.16;59.99;99494.44;5071818;28;20071;-62
2023/05/15 00:21:13;;;;;;;2.85;1.83;;;;;;;18.16;59.99;99505.25;5071583;28;20049;-62
2023/05/15 00:23:41;;;;;;;2.83;1.83;;;;;;;18.16;60.22;99504.38;5071612;28;20045;-62
2023/05/15 00:26:09;;;;;;;3.88;2.00;;;;;;;18.16;60.21;99501.69;5071810;28;20048;-63
2023/05/15 00:28:38;;;;;;;3.42;2.10;;;;;;;18.16;59.97;99516.03;5071537;28;20485;-62
2023/05/15 00:31:08;;;;;;;3.08;2.00;;;;;;;18.16;60.21;99520.59;5071665;28;20098;-63
2023/05/15 00:33:36;;;;;;;3.72;1.90;;;;;;;18.17;60.06;99523.13;5071657;28;20117;-62
2023/05/15 00:36:05;;;;;;;3.40;2.03;;;;;;;18.17;60.18;99522.28;5071502;28;20130;-61
2023/05/15 00:38:33;;;;;;;3.35;2.00;;;;;;;18.15;60.14;99525.13;5071412;28;20062;-62
2023/05/15 00:41:02;;;;;;;3.33;2.00;;;;;;;18.16;60.20;99521.44;5071727;28;20063;-62
2023/05/15 00:43:30;;;;;;;3.05;1.80;;;;;;;18.15;60.18;99508.94;5071640;28;20044;-61
2023/05/15 00:46:00;;;;;;;3.97;2.10;;;;;;;18.15;60.09;99513.50;5071612;28;20393;-63
2023/05/15 00:48:31;;;;;;;3.67;2.00;;;;;;;18.15;60.21;99500.00;5071431;28;20151;-63
2023/05/15 00:51:00;;;;;;;3.63;2.03;;;;;;;18.14;60.02;99496.44;5071375;28;20462;-63
2023/05/15 00:53:28;;;;;;;3.55;1.83;;;;;;;18.15;60.16;99497.31;5071274;28;20076;-63
2023/05/15 00:55:58;;;;;;;3.72;2.20;;;;;;;18.14;59.89;99491.03;5071686;28;20521;-63
2023/05/15 00:58:28;;;;;;;3.58;2.08;;;;;;;18.14;60.13;99500.97;5071444;28;20082;-63
2023/05/15 01:00:56;;;;;;;3.67;2.08;;;;;;;18.13;60.14;99502.84;5071396;28;20129;-63
2023/05/15 01:03:24;;;;;;;4.13;2.20;;;;;;;18.13;60.23;99486.63;5071407;28;20059;-63
2023/05/15 01:05:54;;;;;;;3.17;2.17;;;;;;;18.13;60.28;99494.72;5071517;28;20045;-63
2023/05/15 01:08:27;;;;;;;2.80;1.90;;;;;;;18.14;60.26;99491.03;5071242;28;20599;-63
2023/05/15 01:10:56;;;;;;;3.05;1.90;;;;;;;18.13;60.05;99472.31;5071193;28;20063;-63
2023/05/15 01:13:24;;;;;;;3.30;2.15;;;;;;;18.13;60.04;99473.16;5071270;28;20110;-62
2023/05/15 01:15:55;;;;;;;4.50;1.98;;;;;;;18.13;60.32;99478.53;5071114;28;20048;-63
2023/05/15 01:18:24;;;;;;;3.53;2.20;;;;;;;18.12;60.18;99468.75;5071440;28;20059;-63
2023/05/15 01:21:13;;;;;;;3.15;1.73;;;;;;;18.13;59.90;99473.16;5071341;28;20050;-63
2023/05/15 01:23:58;;;;;;;3.55;2.03;;;;;;;18.12;60.00;99476.00;5072247;28;20053;-63
2023/05/15 01:26:59;;;;;;;2.83;1.90;;;;;;;18.12;59.99;99474.16;5075071;28;20049;-63
2023/05/15 01:29:33;;;;;;;3.13;1.88;;;;;;;18.12;60.17;99460.66;5072217;28;20125;-63
2023/05/15 01:32:04;;;;;;;2.85;1.85;;;;;;;18.12;60.20;99459.81;5074898;28;20049;-63
2023/05/15 01:34:38;;;;;;;3.25;2.17;;;;;;;18.11;60.31;99458.13;5074714;28;20088;-63
2023/05/15 01:37:08;;;;;;;3.35;2.10;;;;;;;18.11;59.92;99468.91;5074932;28;20041;-63
2023/05/15 01:39:42;;;;;;;3.92;2.10;;;;;;;18.11;59.90;99468.91;5074985;28;20398;-62
2023/05/15 01:42:13;;;;;;;4.57;2.40;;;;;;;18.11;60.06;99468.91;5074816;28;20386;-63
2023/05/15 01:44:46;;;;;;;3.00;1.92;;;;;;;18.11;59.85;99461.66;5074587;28;20052;-63
2023/05/15 01:47:17;;;;;;;3.20;1.85;;;;;;;18.10;60.16;99451.88;5074685;28;20051;-63
2023/05/15 01:49:49;;;;;;;3.70;2.00;;;;;;;18.10;59.85;99441.09;5074844;28;20040;-63
2023/05/15 01:52:24;;;;;;;3.40;2.20;;;;;;;18.10;59.97;99433.00;5074458;28;20654;-63
2023/05/15 01:54:54;;;;;;;3.50;1.80;;;;;;;18.10;60.03;99422.19;5074466;28;20098;-62
2023/05/15 01:57:25;;;;;;;2.60;1.80;;;;;;;18.09;59.92;99409.72;5074559;28;20084;-63
2023/05/15 01:59:55;;;;;;;3.17;1.90;;;;;;;18.09;59.75;99407.00;5074296;28;20048;-63
2023/05/15 02:02:23;;;;;;;3.83;1.95;;;;;;;18.09;59.85;99406.19;5074587;28;20143;-63
2023/05/15 02:04:52;;;;;;;3.00;2.08;;;;;;;18.09;60.00;99423.22;5074393;28;20049;-63
2023/05/15 02:07:21;;;;;;;3.13;2.20;;;;;;;18.09;60.12;99433.16;5074215;28;20070;-63
2023/05/15 02:09:51;;;;;;;3.60;2.05;;;;;;;18.08;60.14;99429.63;5074116;28;20048;-63
2023/05/15 02:12:20;;;;;;;2.53;1.70;;;;;;;18.09;59.94;99436.69;5074103;28;20139;-63
2023/05/15 02:14:50;;;;;;;3.20;2.00;;;;;;;18.09;60.14;99441.25;5073897;28;20102;-63
2023/05/15 02:17:19;;;;;;;3.50;2.10;;;;;;;18.08;60.20;99443.09;5074343;28;20438;-63
2023/05/15 02:19:48;;;;;;;3.58;1.98;;;;;;;18.08;60.08;99453.91;5074093;28;20050;-63
2023/05/15 02:22:19;;;;;;;3.63;1.88;;;;;;;18.08;59.94;99451.22;5073905;28;20102;-62
2023/05/15 02:24:47;;;;;;;3.58;2.38;;;;;;;18.07;59.87;99457.63;5073982;28;20055;-63
2023/05/15 02:27:22;;;;;;;3.10;1.98;;;;;;;18.08;59.98;99459.31;5073784;28;20044;-62
2023/05/15 02:30:19;;;;;;;3.65;2.28;;;;;;;18.08;59.85;99464.69;5073982;28;20060;-63
2023/05/15 02:32:58;;;;;;;3.10;1.83;;;;;;;18.07;59.99;99471.09;5072017;28;20040;-63
2023/05/15 02:35:32;;;;;;;3.03;2.00;;;;;;;18.08;59.83;99474.66;5072504;28;20054;-63
2023/05/15 02:38:06;;;;;;;3.13;2.10;;;;;;;18.07;60.24;99479.19;5074133;28;20049;-62
2023/05/15 02:40:37;;;;;;;4.18;2.17;;;;;;;18.07;60.21;99486.44;5073538;28;20045;-62
2023/05/15 02:43:05;;;;;;;3.33;2.10;;;;;;;18.07;59.88;99483.75;5073692;28;20459;-62
2023/05/15 02:45:35;;;;;;;3.67;1.90;;;;;;;18.07;60.15;99484.59;5073602;28;20055;-62
2023/05/15 02:48:05;;;;;;;3.97;2.13;;;;;;;18.06;60.16;99482.91;5073367;28;20094;-62
2023/05/15 02:50:33;;;;;;;3.42;2.10;;;;;;;18.06;59.89;99482.91;5073383;28;20505;-62
2023/05/15 02:53:03;;;;;;;3.25;2.00;;;;;;;18.06;60.03;99477.50;5073291;28;20048;-62
2023/05/15 02:55:31;;;;;;;3.67;2.20;;;;;;;18.06;59.89;99472.13;5073348;28;20109;-62
2023/05/15 02:57:59;;;;;;;3.28;2.13;;;;;;;18.06;60.31;99471.28;5073307;28;20051;-62
2023/05/15 03:00:27;;;;;;;3.45;2.10;;;;;;;18.04;60.16;99468.69;5073211;28;20048;-62
2023/05/15 03:02:56;;;;;;;3.67;2.33;;;;;;;18.05;59.95;99469.53;5073406;28;20385;-62
2023/05/15 03:05:25;;;;;;;3.28;2.10;;;;;;;18.05;60.13;99467.72;5073112;28;20476;-62
2023/05/15 03:07:54;;;;;;;4.50;2.10;;;;;;;18.05;59.89;99461.44;5073095;28;20056;-63
2023/05/15 03:10:23;;;;;;;3.30;2.20;;;;;;;18.04;59.90;99455.22;5072945;28;20072;-63
2023/05/15 03:12:51;;;;;;;3.58;2.30;;;;;;;18.04;59.96;99452.50;5072945;28;20048;-62
2023/05/15 03:15:19;;;;;;;3.53;2.10;;;;;;;18.03;60.08;99458.91;5072857;28;20049;-62
2023/05/15 03:17:47;;;;;;;2.78;1.80;;;;;;;18.04;60.09;99460.59;5073268;28;20138;-62
2023/05/15 03:20:15;;;;;;;4.22;2.00;;;;;;;18.03;59.90;99446.28;5072946;28;20044;-62
2023/05/15 03:22:44;;;;;;;2.95;1.88;;;;;;;18.04;59.84;99439.03;5072904;28;20053;-62
2023/05/15 03:25:13;;;;;;;3.28;2.05;;;;;;;18.03;59.88;99434.63;5072699;28;20053;-62
2023/05/15 03:27:41;;;;;;;3.85;2.22;;;;;;;18.03;60.04;99429.22;5072604;28;20052;-63
2023/05/15 03:30:10;;;;;;;4.20;2.28;;;;;;;18.03;59.90;99426.53;5072731;28;20045;-62
2023/05/15 03:32:38;;;;;;;3.30;2.42;;;;;;;18.03;60.07;99429.22;5072679;28;20055;-62
2023/05/15 03:35:06;;;;;;;3.30;2.20;;;;;;;18.02;59.76;99416.75;5072595;28;20044;-62
2023/05/15 03:37:34;;;;;;;3.28;2.13;;;;;;;18.03;59.82;99407.66;5072456;28;20052;-63
2023/05/15 03:40:06;;;;;;;3.08;1.95;;;;;;;18.03;60.00;99391.47;5072439;28;20063;-62
2023/05/15 03:42:34;;;;;;;3.13;1.90;;;;;;;18.02;59.82;99389.78;5072294;28;20437;-63
2023/05/15 03:45:02;;;;;;;2.78;1.73;;;;;;;18.01;59.74;99394.31;5072591;28;20091;-62
2023/05/15 03:47:31;;;;;;;4.00;2.28;;;;;;;18.02;60.00;99406.81;5072090;28;20048;-62
2023/05/15 03:49:59;;;;;;;3.83;2.22;;;;;;;18.02;59.82;99406.81;5072254;28;20535;-62
2023/05/15 03:52:27;;;;;;;3.53;2.20;;;;;;;18.01;60.03;99388.94;5072285;28;20102;-62
2023/05/15 03:54:55;;;;;;;3.20;2.10;;;;;;;18.01;60.21;99377.28;5072022;28;20131;-62
2023/05/15 03:57:25;;;;;;;3.22;2.10;;;;;;;18.01;59.70;99388.94;5072290;28;20076;-62
2023/05/15 03:59:53;;;;;;;3.38;2.10;;;;;;;18.02;59.93;99400.56;5072221;28;20418;-62
2023/05/15 04:02:21;;;;;;;3.45;2.22;;;;;;;18.01;59.97;99409.66;5072176;28;20074;-62
2023/05/15 04:04:50;;;;;;;3.42;2.17;;;;;;;18.01;59.97;99393.47;5072000;28;20106;-62
2023/05/15 04:07:19;;;;;;;3.17;2.00;;;;;;;18.01;59.78;99388.94;5071959;28;20045;-62
2023/05/15 04:09:47;;;;;;;3.65;2.20;;;;;;;18.01;59.89;99390.78;5071911;28;20131;-62
2023/05/15 04:12:15;;;;;;;2.97;2.08;;;;;;;18.01;60.05;99379.97;5071961;28;20102;-62
2023/05/15 04:14:44;;;;;;;3.05;1.90;;;;;;;18.01;60.06;99379.97;5071750;28;20136;-62
2023/05/15 04:17:12;;;;;;;5.15;2.33;;;;;;;18.01;59.68;99377.28;5071777;28;20052;-62
2023/05/15 04:19:40;;;;;;;2.88;2.00;;;;;;;18.01;60.04;99379.97;5071760;28;20094;-62
2023/05/15 04:22:10;;;;;;;3.00;2.20;;;;;;;18.00;60.05;99375.59;5071727;28;20051;-62
2023/05/15 04:24:38;;;;;;;2.72;2.00;;;;;;;18.00;59.98;99376.44;5071678;28;20055;-62
2023/05/15 04:27:06;;;;;;;3.38;2.08;;;;;;;18.00;59.81;99379.16;5071800;28;20048;-62
2023/05/15 04:29:34;;;;;;;4.25;2.47;;;;;;;18.00;60.04;99384.53;5071718;28;20044;-62
2023/05/15 04:32:04;;;;;;;3.17;2.15;;;;;;;18.00;60.02;99386.41;5071619;28;20051;-63
2023/05/15 04:34:32;;;;;;;4.03;2.10;;;;;;;18.00;59.72;99381.00;5071510;28;20138;-62
2023/05/15 04:37:00;;;;;;;3.53;2.28;;;;;;;18.00;59.77;99370.19;5071739;28;20079;-62
2023/05/15 04:39:29;;;;;;;3.53;2.20;;;;;;;18.00;60.01;99379.16;5071718;28;20075;-62
2023/05/15 04:41:57;;;;;;;3.92;2.25;;;;;;;18.00;59.74;99397.19;5071702;28;20049;-63
2023/05/15 04:44:25;;;;;;;3.97;2.40;;;;;;;18.00;60.15;99402.59;5071475;28;20063;-62
2023/05/15 04:46:53;;;;;;;3.15;2.15;;;;;;;18.00;59.94;99394.50;5086192;28;20082;-62
2023/05/15 04:49:22;;;;;;;3.58;2.03;;;;;;;18.00;60.06;99398.03;5091561;28;20040;-62
2023/05/15 04:51:50;;;;;;;2.92;1.85;;;;;;;18.00;59.85;99402.59;5091907;28;20044;-62
2023/05/15 04:54:19;;;;;;;3.55;2.30;;;;;;;18.00;60.01;99402.59;5091749;28;20048;-62
2023/05/15 04:56:47;;;;;;;3.95;2.40;;;;;;;18.00;60.07;99407.97;5091387;28;20052;-62
2023/05/15 04:59:16;;;;;;;3.60;2.40;;;;;;;18.00;60.07;99426.88;5086181;28;20055;-62
2023/05/15 05:01:45;;;;;;;3.67;2.40;;;;;;;18.00;59.87;99440.34;5075284;28;20045;-63
2023/05/15 05:04:13;;;;;;;3.92;2.60;;;;;;;18.00;59.88;99445.75;5075564;28;20041;-62
2023/05/15 05:06:43;;;;;;;3.88;2.40;;;;;;;17.99;59.76;99442.22;5075522;28;20044;-62
2023/05/15 05:09:11;;;;;;;3.60;2.45;;;;;;;17.99;60.06;99450.31;5075412;28;20055;-63
2023/05/15 05:11:42;;;;;;;4.18;2.60;;;;;;;18.00;60.05;99443.06;5074881;28;20102;-62
2023/05/15 05:14:10;;;;;;;4.38;2.45;;;;;;;17.99;59.88;99444.06;5074750;28;20139;-62
2023/05/15 05:16:38;;;;;;;3.50;2.40;;;;;;;18.00;59.98;99440.34;5074867;28;20060;-63
2023/05/15 05:19:07;;;;;;;3.67;2.17;;;;;;;17.99;60.00;99441.38;5075243;28;20109;-63
2023/05/15 05:21:35;;;;;;;4.60;2.50;;;;;;;18.00;59.91;99451.16;5075247;28;20044;-63
2023/05/15 05:24:05;;;;;;;4.15;2.40;;;;;;;18.00;60.17;99456.53;5074914;28;20059;-62
2023/05/15 05:26:33;;;;;;;4.28;2.40;;;;;;;18.00;60.03;99467.34;5074830;28;20072;-63
2023/05/15 05:29:02;;;;;;;3.63;2.50;;;;;;;18.00;60.07;99464.63;5074897;28;20157;-64
2023/05/15 05:31:30;;;;;;;3.80;2.50;;;;;;;17.99;59.93;99460.25;5075077;28;20084;-63
2023/05/15 05:33:58;;;;;;;3.50;2.38;;;;;;;17.99;60.08;99454.84;5074644;28;20135;-63
2023/05/15 05:36:26;;;;;;;4.03;2.28;;;;;;;17.98;59.91;99451.31;5074814;28;20080;-62
2023/05/15 05:38:54;;;;;;;3.70;2.40;;;;;;;18.00;59.88;99446.59;5074789;28;20087;-63
2023/05/15 05:41:23;;;;;;;4.00;2.53;;;;;;;18.00;60.01;99445.75;5074166;28;20045;-63
2023/05/15 05:43:51;;;;;;;3.97;2.63;;;;;;;17.99;60.13;99449.47;5074492;28;20045;-63
2023/05/15 05:46:20;;;;;;;5.40;2.70;;;;;;;17.99;59.91;99446.75;5074101;28;20040;-62
2023/05/15 05:48:48;;;;;;;4.55;2.60;;;;;;;18.00;60.01;99453.84;5073724;28;20040;-63
2023/05/15 05:51:16;;;;;;;5.15;2.47;;;;;;;18.01;60.41;99460.94;5072802;28;20238;-63
2023/05/15 05:53:44;;;;;;;4.97;3.10;;;;;;;18.01;60.45;99466.31;5069728;28;20233;-62
2023/05/15 05:56:15;;;;;;;4.43;2.78;;;;;;;18.01;60.75;99471.72;5072194;28;20062;-60
2023/05/15 05:58:45;;;;;;;3.92;2.53;;;;;;;18.01;60.97;99477.13;5072538;28;20051;-64
2023/05/15 06:01:13;;;;;;;4.88;2.90;;;;;;;18.01;60.84;99474.44;5072282;28;20070;-62
2023/05/15 06:03:43;;;;;;;4.20;2.85;;;;;;;18.02;61.09;99481.50;5073184;28;20072;-63
2023/05/15 06:06:11;;;;;;;3.95;2.60;;;;;;;18.02;61.13;99468.03;5073554;28;20056;-62
2023/05/15 06:08:40;;;;;;;5.90;2.63;;;;;;;18.02;60.99;99458.06;5073294;28;20481;-63
2023/05/15 06:11:08;;;;;;;5.07;2.67;;;;;;;18.04;61.19;99466.00;5072218;28;20095;-62
2023/05/15 06:13:36;;;;;;;4.25;2.83;;;;;;;18.05;61.02;99469.53;5073067;28;20049;-63
2023/05/15 06:16:06;;;;;;;3.75;2.53;;;;;;;18.05;61.11;99469.53;5073250;28;20070;-63
2023/05/15 06:18:34;;;;;;;4.85;2.78;;;;;;;18.06;61.39;99473.97;5073464;28;20074;-62
2023/05/15 06:21:02;;;;;;;5.43;2.60;;;;;;;18.06;61.17;99480.22;5073193;28;20050;-63
2023/05/15 06:23:31;;;;;;;3.92;2.55;;;;;;;18.07;61.33;99483.75;5073918;28;20055;-62
2023/05/15 06:26:00;;;;;;;4.43;2.65;;;;;;;18.06;61.45;99488.31;5073917;28;20067;-63
2023/05/15 06:28:28;;;;;;;3.90;2.50;;;;;;;18.07;61.30;99490.00;5073897;28;20446;-62
2023/05/15 06:30:56;;;;;;;5.85;3.10;;;;;;;18.08;61.63;99498.94;5073886;28;20044;-62
2023/05/15 06:33:26;;;;;;;4.30;2.60;;;;;;;18.09;61.30;99492.53;5074073;28;20084;-62
2023/05/15 06:35:54;;;;;;;4.32;2.88;;;;;;;18.09;61.39;99487.13;5073566;28;20493;-62
2023/05/15 06:38:22;;;;;;;4.13;2.72;;;;;;;18.09;61.73;99479.88;5073583;28;20055;-63
2023/05/15 06:40:50;;;;;;;7.72;2.80;;;;;;;18.10;61.73;99478.88;5073774;28;20053;-62
2023/05/15 06:43:18;;;;;;;6.90;2.70;;;;;;;18.11;61.80;99475.16;5073427;28;20092;-62
2023/05/15 06:45:47;;;;;;;4.30;2.60;;;;;;;18.12;61.70;99471.47;5073288;28;20052;-62
2023/05/15 06:48:15;;;;;;;5.38;3.00;;;;;;;18.13;61.96;99462.34;5073325;28;20189;-62
2023/05/15 06:50:44;;;;;;;6.47;2.63;;;;;;;18.14;61.93;99452.41;5073298;28;20098;-62
2023/05/15 06:53:12;;;;;;;6.05;2.75;;;;;;;18.15;61.86;99454.13;5073392;28;20067;-64
2023/05/15 06:55:41;;;;;;;6.88;2.78;;;;;;;18.15;61.63;99456.81;5073260;28;20516;-63
2023/05/15 06:58:09;;;;;;;6.72;2.80;;;;;;;18.16;61.78;99453.97;5073277;28;20090;-63
2023/05/15 07:00:38;;;;;;;5.22;2.40;;;;;;;18.17;61.82;99450.25;5072976;28;20504;-63
2023/05/15 07:03:06;;;;;;;5.07;2.60;;;;;;;18.18;61.52;99448.41;5073018;28;20052;-63
2023/05/15 07:05:34;;;;;;;7.57;2.50;;;;;;;18.19;61.59;99459.03;5073329;28;20052;-63
2023/05/15 07:08:03;;;;;;;4.78;2.53;;;;;;;18.21;61.49;99469.66;5073186;28;20045;-64
2023/05/15 07:10:31;;;;;;;6.13;2.80;;;;;;;18.21;61.62;99473.19;5073004;28;20450;-63
2023/05/15 07:12:59;;;;;;;4.65;2.80;;;;;;;18.22;61.81;99472.19;5072896;28;20486;-63
2023/05/15 07:15:28;;;;;;;3.95;2.20;;;;;;;18.23;61.54;99467.63;5072878;28;20051;-63
2023/05/15 07:17:56;;;;;;;6.97;2.80;;;;;;;18.25;61.81;99473.75;5072677;28;20143;-63
2023/05/15 07:20:24;;;;;;;4.90;2.58;;;;;;;18.25;61.91;99474.59;5072854;28;20053;-63
2023/05/15 07:22:57;;;;;;;;;;;;;;;18.26;61.91;99484.38;5072564;28;20131;-63
2023/05/15 07:25:27;;;;;;;4.65;2.63;;;;;;;18.27;61.69;99488.78;5072661;28;19966;-63
2023/05/15 07:27:55;;;;;;;5.28;2.35;;;;;;;18.28;61.62;99493.16;5072562;28;20052;-63
2023/05/15 07:30:25;;;;;;;5.15;2.65;;;;;;;18.28;61.72;99497.72;5072305;28;20131;-63
2023/05/15 07:32:53;;;;;;;5.57;2.70;;;;;;;18.28;61.72;99501.25;5072584;28;20044;-63
2023/05/15 07:35:22;;;;;;;3.80;2.38;;;;;;;18.29;61.97;99500.25;5072336;28;20078;-63
2023/05/15 07:37:50;;;;;;;6.90;2.70;;;;;;;18.30;62.03;99490.28;5072419;28;20531;-63
2023/05/15 07:40:18;;;;;;;4.50;2.47;;;;;;;18.30;61.83;99488.44;5072165;28;20143;-63
2023/05/15 07:42:48;;;;;;;5.07;2.50;;;;;;;18.31;61.72;99473.94;5072095;28;20075;-63
2023/05/15 07:45:16;;;;;;;4.00;2.40;;;;;;;18.32;61.84;99472.06;5072499;28;20059;-64
2023/05/15 07:47:48;;;;;;;5.25;2.45;;;;;;;18.33;62.06;99467.53;5072305;28;20048;-63
2023/05/15 07:50:16;;;;;;;4.65;2.47;;;;;;;18.34;61.81;99467.38;5072003;28;20056;-63
2023/05/15 07:52:45;;;;;;;5.80;2.50;;;;;;;18.35;62.04;99460.13;5072164;28;20048;-63
2023/05/15 07:55:13;;;;;;;4.60;2.55;;;;;;;18.36;62.02;99453.72;5071759;28;20044;-63
2023/05/15 07:57:41;;;;;;;4.80;2.28;;;;;;;18.37;62.14;99458.09;5071850;28;20489;-63
2023/05/15 08:00:12;;;;;;;4.55;2.47;;;;;;;18.38;62.23;99465.19;5072048;28;20140;-63
2023/05/15 08:02:41;;;;;;;4.85;2.33;;;;;;;18.40;62.17;99484.78;5071592;28;20127;-63
2023/05/15 08:05:09;;;;;;;5.45;2.22;;;;;;;18.40;61.97;99491.03;5071892;28;20140;-63
2023/05/15 08:07:37;;;;;;;5.00;2.53;;;;;;;18.42;61.76;99505.19;5071861;28;20044;-63
2023/05/15 08:10:07;;;;;;;4.40;2.83;;;;;;;18.42;61.70;99501.66;5071559;28;20136;-63
2023/05/15 08:12:35;;;;;;;7.47;2.60;;;;;;;18.44;61.91;99491.56;5071814;28;20048;-63
2023/05/15 08:15:04;;;;;;;6.70;2.70;;;;;;;18.45;61.66;99499.50;5071875;28;20135;-63
2023/05/15 08:17:33;;;;;;;4.38;2.60;;;;;;;18.46;61.56;99497.66;5071641;28;20048;-63
2023/05/15 08:20:01;;;;;;;6.78;2.95;;;;;;;18.46;62.02;99503.03;5071707;28;20077;-63
2023/05/15 08:22:29;;;;;;;6.57;2.97;;;;;;;18.49;61.89;99495.47;5071470;28;20055;-63
2023/05/15 08:24:59;;;;;;;4.35;2.65;;;;;;;18.49;62.01;99492.75;5071679;28;20146;-63
2023/05/15 08:27:27;;;;;;;7.20;3.00;;;;;;;18.50;61.69;99499.00;5072029;28;20416;-61
2023/05/15 08:29:55;;;;;;;5.57;2.63;;;;;;;18.52;62.08;99505.09;5071546;28;20084;-62
2023/05/15 08:32:23;;;;;;;5.85;2.72;;;;;;;18.52;61.70;99505.94;5071150;28;20506;-62
2023/05/15 08:34:56;;;;;;;6.60;2.95;;;;;;;18.53;61.64;99496.00;5071543;28;20459;-62
2023/05/15 08:37:24;;;;;;;7.15;3.22;;;;;;;18.54;61.92;99492.28;5071191;28;20290;-62
2023/05/15 08:39:52;;;;;;;5.72;2.70;;;;;;;18.55;61.91;99486.72;5071513;28;20559;-62
2023/05/15 08:42:26;;;;;;;6.45;2.97;;;;;;;18.56;61.57;99496.50;5071396;28;20052;-62
2023/05/15 08:44:55;;;;;;;5.38;2.70;;;;;;;18.56;61.57;99488.41;5071324;28;20087;-62
2023/05/15 08:47:26;;;;;;;4.80;2.80;;;;;;;18.57;61.93;99490.09;5071128;28;20051;-62
2023/05/15 08:50:03;;;;;;;6.35;3.03;;;;;;;18.59;61.97;99484.53;5071494;28;20084;-62
2023/05/15 08:52:33;;;;;;;4.55;2.47;;;;;;;18.60;61.80;99480.81;5071214;28;20426;-61
2023/05/15 08:55:05;;;;;;;6.85;3.00;;;;;;;18.61;61.75;99482.50;5071285;28;20420;-63
2023/05/15 08:57:33;;;;;;;6.20;3.10;;;;;;;18.62;61.86;99478.78;5071238;28;20053;-63
2023/05/15 09:00:03;;;;;;;4.72;2.80;;;;;;;18.64;61.61;99476.81;5071130;28;20074;-62
2023/05/15 09:02:32;;;;;;;4.57;2.70;;;;;;;18.65;61.72;99472.28;5071505;28;20053;-62
2023/05/15 09:05:02;;;;;;;6.18;2.80;;;;;;;18.66;61.63;99477.50;5070876;28;20512;-63
2023/05/15 09:07:31;;;;;;;6.13;2.88;;;;;;;18.66;61.55;99477.50;5071150;28;20432;-62
2023/05/15 09:10:01;;;;;;;5.47;2.75;;;;;;;18.67;61.62;99487.31;5070706;28;20091;-62
2023/05/15 09:12:32;;;;;;;5.30;2.63;;;;;;;18.68;61.53;99494.41;5070990;28;20945;-62
2023/05/15 09:15:11;;;;;;;5.22;2.70;;;;;;;18.71;61.57;99498.63;5070878;28;20552;-62
2023/05/15 09:17:41;;;;;;;5.75;2.72;;;;;;;18.71;61.57;99501.31;5070929;28;20045;-62
2023/05/15 09:20:28;;;;;;;5.90;3.20;;;;;;;18.72;61.99;99500.31;5070984;28;20064;-62
2023/05/15 09:22:56;;;;;;;4.80;2.97;;;;;;;18.72;61.94;99506.59;5071357;28;20049;-62
2023/05/15 09:25:36;;;;;;;4.38;2.80;;;;;;;18.73;61.95;99508.28;5070987;28;20114;-62
2023/05/15 09:28:05;;;;;;;4.95;2.70;;;;;;;18.75;61.82;99516.22;5071155;28;20091;-62
2023/05/15 09:30:33;;;;;;;7.07;2.92;;;;;;;18.75;61.77;99511.66;5070934;28;20052;-63
2023/05/15 09:33:03;;;;;;;5.97;3.20;;;;;;;18.78;61.93;99527.53;5070776;28;20045;-62
2023/05/15 09:35:34;;;;;;;5.22;2.75;;;;;;;18.78;61.58;99521.28;5070754;28;20044;-62
2023/05/15 09:38:04;;;;;;;5.60;2.80;;;;;;;18.78;61.72;99526.69;5070543;28;20517;-62
2023/05/15 09:40:32;;;;;;;8.40;2.65;;;;;;;18.80;61.55;99530.06;5070554;28;20125;-64
2023/05/15 09:43:00;;;;;;;7.00;2.90;;;;;;;18.83;61.65;99524.34;5070864;28;20052;-64
2023/05/15 09:45:30;;;;;;;5.97;2.85;;;;;;;18.84;61.60;99529.59;5072937;28;20119;-61
2023/05/15 09:48:01;;;;;;;6.13;3.03;;;;;;;18.85;62.11;99528.59;5074208;28;20052;-63
2023/05/15 09:50:35;;;;;;;6.88;2.80;;;;;;;18.87;62.46;99531.13;5074119;28;20143;-63
2023/05/15 09:53:03;;;;;;;5.80;2.92;;;;;;;18.88;62.64;99532.81;5074425;28;20053;-64
2023/05/15 09:55:33;;;;;;;5.95;2.55;;;;;;;18.90;62.55;99535.34;5074343;28;20044;-63
2023/05/15 09:58:06;;;;;;;5.05;2.60;;;;;;;18.91;62.66;99528.91;5074142;28;20128;-63
2023/05/15 10:00:34;;;;;;;4.15;2.40;;;;;;;18.92;62.50;99527.94;5074115;28;20059;-64
2023/05/15 10:03:03;;;;;;;4.78;2.58;;;;;;;18.94;62.95;99528.63;5074129;28;20501;-63
2023/05/15 10:05:33;;;;;;;5.13;2.30;;;;;;;18.95;62.54;99528.44;5074345;28;20057;-64
2023/05/15 10:08:14;;;;;;;5.43;2.45;;;;;;;18.97;62.47;99541.78;5074023;28;20048;-64
2023/05/15 10:10:45;;;;;;;5.05;2.65;;;;;;;18.96;62.41;99530.13;5073754;28;20079;-64
2023/05/15 10:13:14;;;;;;;4.10;2.30;;;;;;;18.97;62.47;99533.69;5073949;28;20099;-63
2023/05/15 10:15:48;;;;;;;4.30;2.45;;;;;;;18.98;62.91;99533.53;5074081;28;20048;-64
2023/05/15 10:18:18;;;;;;;4.88;2.63;;;;;;;18.99;62.54;99532.50;5074024;28;20052;-63
2023/05/15 10:20:49;;;;;;;4.05;2.55;;;;;;;19.00;62.43;99531.50;5073811;28;20044;-64
2023/05/15 10:23:21;;;;;;;5.47;2.40;;;;;;;19.01;62.82;99526.94;5073854;28;20041;-64
2023/05/15 10:26:01;;;;;;;4.82;2.50;;;;;;;19.02;62.71;99534.91;5073679;28;20588;-64
2023/05/15 10:28:31;;;;;;;3.97;2.47;;;;;;;19.03;62.36;99536.59;5074204;28;20099;-63
2023/05/15 10:31:01;;;;;;;4.47;2.10;;;;;;;19.05;62.51;99539.97;5073853;28;20478;-63
2023/05/15 10:33:29;;;;;;;4.13;2.45;;;;;;;19.05;62.52;99529.16;5073473;28;20060;-64
2023/05/15 10:35:59;;;;;;;3.78;2.38;;;;;;;19.05;62.67;99529.16;5073566;28;20054;-64
2023/05/15 10:38:30;;;;;;;3.58;2.33;;;;;;;19.07;62.28;99537.09;5073324;28;20405;-62
2023/05/15 10:41:00;;;;;;;3.60;2.35;;;;;;;19.08;62.45;99539.63;5073493;28;20105;-64
2023/05/15 10:43:44;;;;;;;6.43;2.58;;;;;;;19.08;62.65;99533.38;5073547;28;20044;-64
2023/05/15 10:46:13;;;;;;;5.25;2.30;;;;;;;19.09;62.67;99540.47;5073234;28;20489;-65
2023/05/15 10:48:42;;;;;;;4.57;2.35;;;;;;;19.11;62.63;99541.19;5073129;28;20052;-63
2023/05/15 10:51:17;;;;;;;4.00;2.38;;;;;;;19.12;62.44;99535.63;5073057;28;20118;-63
2023/05/15 10:53:46;;;;;;;3.53;2.33;;;;;;;19.13;62.48;99536.44;5073263;28;20106;-64
2023/05/15 10:56:15;;;;;;;4.30;2.30;;;;;;;19.15;62.30;99539.84;5072161;28;20045;-63
2023/05/15 10:58:46;;;;;;;3.65;2.00;;;;;;;19.17;62.27;99532.41;5073128;28;20049;-63
2023/05/15 11:01:26;;;;;;;4.97;2.20;;;;;;;19.17;62.45;99538.66;5072935;28;20490;-63
2023/05/15 11:04:06;;;;;;;3.25;1.75;;;;;;;19.20;62.25;99542.03;5073216;28;20374;-64
2023/05/15 11:06:36;;;;;;;3.85;2.10;;;;;;;19.20;62.39;99542.88;5073005;28;20485;-63
2023/05/15 11:09:33;;;;;;;3.90;2.30;;;;;;;19.21;62.48;99536.47;5072879;28;20059;-64
2023/05/15 11:12:03;;;;;;;3.83;1.95;;;;;;;19.23;62.21;99544.44;5072586;28;20144;-64
2023/05/15 11:14:32;;;;;;;3.95;1.88;;;;;;;19.23;62.09;99534.44;5072756;28;20049;-63
2023/05/15 11:17:02;;;;;;;4.60;2.20;;;;;;;19.26;62.19;99541.38;5072633;28;20075;-63
2023/05/15 11:19:40;;;;;;;4.60;2.00;;;;;;;19.28;62.27;99536.66;5072670;28;20060;-63
2023/05/15 11:22:20;;;;;;;3.00;1.85;;;;;;;19.29;61.94;99536.47;5072686;28;20198;-63
2023/05/15 11:24:52;;;;;;;4.18;2.00;;;;;;;19.31;62.01;99520.97;5072550;28;20048;-64
2023/05/15 11:27:22;;;;;;;4.18;2.50;;;;;;;19.31;62.48;99518.25;5072544;28;20048;-65
2023/05/15 11:30:07;;;;;;;3.35;2.08;;;;;;;19.32;62.44;99514.53;5072589;28;20205;-63
2023/05/15 11:32:49;;;;;;;4.45;2.20;;;;;;;19.34;62.05;99517.06;5071048;28;20059;-63
2023/05/15 11:35:26;;;;;;;4.32;1.98;;;;;;;19.35;61.86;99518.75;5072646;28;20076;-63
2023/05/15 11:37:57;;;;;;;3.17;1.92;;;;;;;19.36;61.82;99525.84;5072528;28;20076;-63
2023/05/15 11:40:26;;;;;;;3.65;2.30;;;;;;;19.36;62.01;99515.88;5071903;28;20493;-64
2023/05/15 11:43:16;;;;;;;3.97;2.25;;;;;;;19.37;62.08;99514.88;5071955;28;20040;-63
2023/05/15 11:45:47;;;;;;;3.97;1.92;;;;;;;19.40;61.79;99521.81;5072182;28;20126;-63
2023/05/15 11:48:16;;;;;;;4.43;2.30;;;;;;;19.39;62.07;99515.53;5071908;28;20080;-63